Time;durP1;ratioP1;P1;durP2;ratioP2;P2;SDS_P1;SDS_P2;PMS_P1;PMS_P2;Temp;Humidity;BMP_temperature;BMP_pressure;BME280_temperature;BME280_humidity;BME280_pressure;Samples;Min_cycle;Max_cycle;Signal;HPM_P1;HPM_P2
2023/05/29 00:00:02;;;;;;;0.10;0.10;;;9.50;99.90;;;;;;4843089;29;20410;-80
2023/05/29 00:02:28;;;;;;;0.20;0.20;;;10.40;99.90;;;;;;4839398;29;20049;-80
2023/05/29 00:05:21;;;;;;;0.17;0.17;;;9.90;99.90;;;;;;4859036;29;20037;-80
2023/05/29 00:08:12;;;;;;;0.20;0.20;;;10.40;99.90;;;;;;4840719;29;20145;-80
2023/05/29 00:10:43;;;;;;;0.10;0.10;;;9.30;99.90;;;;;;4841350;29;20057;-80
2023/05/29 00:13:18;;;;;;;0.20;0.20;;;10.40;99.90;;;;;;4857186;29;20505;-81
2023/05/29 00:16:26;;;;;;;0.10;0.10;;;9.90;99.90;;;;;;4842361;29;20059;-80
2023/05/29 00:18:53;;;;;;;0.10;0.10;;;10.60;99.90;;;;;;4829061;29;20061;-80
2023/05/29 00:21:55;;;;;;;0.15;0.15;;;9.80;99.90;;;;;;2031879;23;20253;-87
2023/05/29 00:24:21;;;;;;;0.20;0.20;;;9.80;99.90;;;;;;4822293;29;20054;-89
2023/05/29 00:26:47;;;;;;;0.10;0.10;;;9.80;99.90;;;;;;4824891;29;20061;-88
2023/05/29 00:29:13;;;;;;;0.20;0.20;;;9.70;99.90;;;;;;4838589;29;20053;-89
2023/05/29 00:31:38;;;;;;;0.20;0.20;;;9.70;99.90;;;;;;4844320;29;20114;-88
2023/05/29 00:34:04;;;;;;;0.13;0.13;;;9.70;99.90;;;;;;4820718;29;20053;-88
2023/05/29 00:36:31;;;;;;;0.20;0.20;;;9.70;99.90;;;;;;4843615;29;20042;-88
2023/05/29 00:38:57;;;;;;;0.20;0.20;;;9.70;99.90;;;;;;4839168;29;20080;-89
2023/05/29 00:41:22;;;;;;;0.20;0.20;;;9.60;99.90;;;;;;4840302;29;20454;-89
2023/05/29 00:43:48;;;;;;;0.20;0.20;;;9.60;99.90;;;;;;4823285;29;20161;-89
2023/05/29 00:46:15;;;;;;;0.20;0.20;;;9.60;99.90;;;;;;4818030;29;20050;-88
2023/05/29 00:48:44;;;;;;;0.20;0.20;;;9.50;99.90;;;;;;4826801;29;20054;-87
2023/05/29 00:51:12;;;;;;;0.17;0.17;;;9.60;99.90;;;;;;4847980;29;20054;-88
2023/05/29 00:53:39;;;;;;;0.20;0.20;;;9.60;99.90;;;;;;4827355;29;20559;-88
2023/05/29 00:56:05;;;;;;;0.20;0.20;;;9.60;99.90;;;;;;4841562;29;20108;-89
2023/05/29 00:58:31;;;;;;;0.17;0.17;;;9.50;99.90;;;;;;4839375;29;20065;-89
2023/05/29 01:00:57;;;;;;;0.10;0.10;;;9.50;99.90;;;;;;4823287;29;20470;-89
2023/05/29 01:03:23;;;;;;;0.10;0.10;;;9.50;99.90;;;;;;4814040;29;20054;-88
2023/05/29 01:05:49;;;;;;;0.20;0.20;;;9.50;99.90;;;;;;4822147;29;20050;-88
2023/05/29 01:08:15;;;;;;;0.20;0.20;;;9.60;99.90;;;;;;4839482;29;20519;-88
2023/05/29 01:10:42;;;;;;;0.20;0.20;;;9.50;99.90;;;;;;4840069;29;20042;-88
2023/05/29 01:13:23;;;;;;;0.20;0.20;;;9.50;99.90;;;;;;4823336;29;20050;-89
2023/05/29 01:16:01;;;;;;;0.20;0.20;;;9.50;99.90;;;;;;4823275;29;20094;-88
2023/05/29 01:18:36;;;;;;;0.20;0.20;;;9.40;99.90;;;;;;4837079;29;20054;-88
2023/05/29 01:21:10;;;;;;;0.20;0.20;;;9.40;99.90;;;;;;4839376;29;20051;-86
2023/05/29 01:23:45;;;;;;;0.20;0.20;;;9.40;99.90;;;;;;4847099;29;20058;-90
2023/05/29 01:26:40;;;;;;;0.20;0.20;;;9.40;99.90;;;;;;4823917;29;20058;-89
2023/05/29 01:29:10;;;;;;;0.20;0.20;;;9.40;99.90;;;;;;4822436;29;20058;-89
2023/05/29 01:31:39;;;;;;;0.20;0.20;;;9.40;99.90;;;;;;4823227;29;20046;-88
2023/05/29 01:34:05;;;;;;;0.13;0.13;;;9.40;99.90;;;;;;4832585;29;20101;-87
2023/05/29 01:36:32;;;;;;;0.20;0.20;;;9.50;99.90;;;;;;4819239;29;20074;-89
2023/05/29 01:38:59;;;;;;;0.13;0.13;;;9.60;99.90;;;;;;4843900;29;20041;-87
2023/05/29 01:41:26;;;;;;;0.10;0.10;;;9.50;99.90;;;;;;4839184;29;20041;-87
2023/05/29 01:43:52;;;;;;;0.10;0.10;;;9.50;99.90;;;;;;4830145;29;20053;-87
2023/05/29 01:46:19;;;;;;;0.10;0.10;;;9.60;99.90;;;;;;4839333;29;20125;-86
2023/05/29 01:48:45;;;;;;;0.20;0.20;;;9.50;99.90;;;;;;4821819;29;20178;-87
2023/05/29 01:51:12;;;;;;;0.20;0.20;;;9.50;99.90;;;;;;4823489;29;20406;-87
2023/05/29 01:53:39;;;;;;;0.20;0.20;;;9.60;99.90;;;;;;4823105;29;20125;-87
2023/05/29 01:56:06;;;;;;;0.10;0.10;;;9.60;99.90;;;;;;4840266;29;20122;-85
2023/05/29 01:58:34;;;;;;;0.10;0.10;;;9.50;99.90;;;;;;4839739;29;20057;-87
2023/05/29 02:01:01;;;;;;;0.15;0.15;;;9.50;99.90;;;;;;4822203;29;20050;-88
2023/05/29 02:03:29;;;;;;;0.10;0.10;;;9.50;99.90;;;;;;4823337;29;20132;-87
2023/05/29 02:06:00;;;;;;;0.20;0.20;;;9.50;99.90;;;;;;4823422;29;20405;-87
2023/05/29 02:08:26;;;;;;;0.20;0.20;;;9.50;99.90;;;;;;4839869;29;20129;-87
2023/05/29 02:10:52;;;;;;;0.20;0.20;;;9.50;99.90;;;;;;4824068;29;20038;-88
2023/05/29 02:13:18;;;;;;;0.20;0.20;;;9.50;99.90;;;;;;4829015;29;20050;-88
2023/05/29 02:15:44;;;;;;;0.20;0.20;;;9.50;99.90;;;;;;4841139;29;20042;-87
2023/05/29 02:18:14;;;;;;;0.10;0.10;;;9.50;99.90;;;;;;4821986;29;20050;-87
2023/05/29 02:20:41;;;;;;;0.13;0.13;;;9.50;99.90;;;;;;4821185;29;20042;-89
2023/05/29 02:23:09;;;;;;;0.20;0.20;;;9.50;99.90;;;;;;4826774;29;20077;-87
2023/05/29 02:25:35;;;;;;;0.20;0.20;;;9.50;99.90;;;;;;4818780;29;20053;-89
2023/05/29 02:28:02;;;;;;;0.20;0.20;;;9.50;99.90;;;;;;4840445;29;20065;-89
2023/05/29 02:30:28;;;;;;;0.20;0.20;;;9.50;99.90;;;;;;4825780;29;20094;-88
2023/05/29 02:32:54;;;;;;;0.20;0.20;;;9.50;99.90;;;;;;4824686;29;20046;-90
2023/05/29 02:35:22;;;;;;;0.20;0.20;;;9.50;99.90;;;;;;4832095;29;20076;-88
2023/05/29 02:37:50;;;;;;;0.10;0.10;;;9.50;99.90;;;;;;4859407;29;20045;-88
2023/05/29 02:40:17;;;;;;;0.20;0.20;;;9.50;99.90;;;;;;4815496;29;20187;-90
2023/05/29 02:42:43;;;;;;;0.20;0.20;;;9.50;99.90;;;;;;4834448;29;20097;-88
2023/05/29 02:45:08;;;;;;;0.15;0.15;;;9.50;99.90;;;;;;4841138;29;20091;-88
2023/05/29 02:47:35;;;;;;;0.20;0.20;;;9.50;99.90;;;;;;4816768;29;20049;-88
2023/05/29 02:50:01;;;;;;;0.20;0.20;;;9.40;99.90;;;;;;4843211;29;20124;-88
2023/05/29 02:52:27;;;;;;;0.20;0.20;;;9.50;99.90;;;;;;4820408;29;20191;-88
2023/05/29 02:54:54;;;;;;;0.20;0.20;;;9.50;99.90;;;;;;4821975;29;20078;-88
2023/05/29 02:57:20;;;;;;;0.20;0.20;;;9.50;99.90;;;;;;4816795;29;20056;-88
2023/05/29 02:59:46;;;;;;;0.17;0.17;;;9.50;99.90;;;;;;4835958;29;20090;-88
2023/05/29 03:02:12;;;;;;;0.20;0.20;;;9.50;99.90;;;;;;4836045;29;20111;-88
2023/05/29 03:04:37;;;;;;;0.20;0.20;;;9.50;99.90;;;;;;4841385;29;20045;-87
2023/05/29 03:07:03;;;;;;;0.20;0.20;;;9.50;99.90;;;;;;4827346;29;20053;-88
2023/05/29 03:09:29;;;;;;;0.10;0.10;;;9.50;99.90;;;;;;4827728;29;20136;-88
2023/05/29 03:11:55;;;;;;;0.20;0.20;;;9.60;99.90;;;;;;4827710;29;20049;-87
2023/05/29 03:14:21;;;;;;;0.20;0.20;;;9.60;99.90;;;;;;4828662;29;20042;-87
2023/05/29 03:16:49;;;;;;;0.10;0.10;;;9.60;99.90;;;;;;4839970;29;20410;-88
2023/05/29 03:19:15;;;;;;;0.13;0.13;;;9.60;99.90;;;;;;4841771;29;20038;-88
2023/05/29 03:21:40;;;;;;;0.10;0.10;;;9.60;99.90;;;;;;4834213;29;20120;-87
2023/05/29 03:24:06;;;;;;;0.20;0.20;;;9.60;99.90;;;;;;4833263;29;20050;-86
2023/05/29 03:26:32;;;;;;;0.20;0.20;;;9.60;99.90;;;;;;4827098;29;20061;-87
2023/05/29 03:28:57;;;;;;;0.10;0.10;;;9.70;99.90;;;;;;4842785;29;20183;-86
2023/05/29 03:31:23;;;;;;;0.20;0.20;;;9.70;99.90;;;;;;4826810;29;20140;-87
2023/05/29 03:33:49;;;;;;;0.10;0.10;;;9.70;99.90;;;;;;4826419;29;20122;-87
2023/05/29 03:36:16;;;;;;;0.20;0.20;;;9.70;99.90;;;;;;4829502;29;20049;-86
2023/05/29 03:38:43;;;;;;;0.10;0.10;;;9.70;99.90;;;;;;4824207;29;20629;-87
2023/05/29 03:41:09;;;;;;;0.20;0.20;;;9.70;99.90;;;;;;4817755;29;20112;-87
2023/05/29 03:43:34;;;;;;;0.15;0.15;;;9.70;99.90;;;;;;4821440;29;20048;-87
2023/05/29 03:46:00;;;;;;;0.10;0.10;;;9.80;99.90;;;;;;4828772;29;20137;-87
2023/05/29 03:48:26;;;;;;;0.20;0.20;;;9.80;99.90;;;;;;4834116;29;20130;-87
2023/05/29 03:50:51;;;;;;;0.20;0.20;;;9.80;99.90;;;;;;4842279;29;20081;-88
2023/05/29 03:53:17;;;;;;;0.10;0.10;;;9.80;99.90;;;;;;4821949;29;20054;-86
2023/05/29 03:55:43;;;;;;;0.20;0.20;;;9.80;99.90;;;;;;4842678;29;20049;-88
2023/05/29 03:58:09;;;;;;;0.20;0.20;;;9.90;99.90;;;;;;4845574;29;20049;-88
2023/05/29 04:00:34;;;;;;;0.20;0.20;;;9.90;99.90;;;;;;4827560;29;20071;-89
2023/05/29 04:03:00;;;;;;;0.10;0.10;;;10.00;99.90;;;;;;4848347;29;20049;-89
2023/05/29 04:05:26;;;;;;;0.20;0.20;;;10.00;99.90;;;;;;4815074;29;20142;-87
2023/05/29 04:07:52;;;;;;;0.20;0.20;;;10.00;99.90;;;;;;4825424;29;20048;-88
2023/05/29 04:10:18;;;;;;;0.20;0.20;;;10.00;99.90;;;;;;4844491;29;20054;-88
2023/05/29 04:12:43;;;;;;;0.10;0.10;;;10.00;99.90;;;;;;4831090;29;20301;-87
2023/05/29 04:15:09;;;;;;;0.20;0.20;;;10.00;99.90;;;;;;4808101;29;20043;-86
2023/05/29 04:17:35;;;;;;;0.20;0.20;;;10.10;99.90;;;;;;4840085;29;20129;-87
2023/05/29 04:20:07;;;;;;;0.20;0.20;;;10.10;99.90;;;;;;4825217;29;20050;-86
2023/05/29 04:22:33;;;;;;;0.20;0.20;;;10.20;99.90;;;;;;4840883;29;20121;-86
2023/05/29 04:24:58;;;;;;;0.20;0.20;;;10.10;99.90;;;;;;4836680;29;20078;-87
2023/05/29 04:27:24;;;;;;;0.15;0.15;;;10.20;99.90;;;;;;4837208;29;20095;-87
2023/05/29 04:29:50;;;;;;;0.20;0.20;;;10.20;99.90;;;;;;4841603;29;20196;-85
2023/05/29 04:32:15;;;;;;;0.20;0.20;;;10.20;99.90;;;;;;4827113;29;20053;-86
2023/05/29 04:34:43;;;;;;;0.10;0.10;;;10.20;99.90;;;;;;4829372;29;20054;-86
2023/05/29 04:37:09;;;;;;;0.10;0.10;;;10.30;99.90;;;;;;4833406;29;20071;-87
2023/05/29 04:39:35;;;;;;;0.10;0.10;;;10.30;99.90;;;;;;4825246;29;20111;-86
2023/05/29 04:42:01;;;;;;;0.20;0.20;;;10.30;99.90;;;;;;4825669;29;20042;-88
2023/05/29 04:44:27;;;;;;;0.20;0.20;;;10.30;99.90;;;;;;4823585;29;20530;-87
2023/05/29 04:46:53;;;;;;;0.10;0.10;;;10.30;99.90;;;;;;4851795;29;20049;-86
2023/05/29 04:49:20;;;;;;;0.20;0.20;;;10.30;99.90;;;;;;4824569;29;20046;-86
2023/05/29 04:51:46;;;;;;;0.20;0.20;;;10.30;99.90;;;;;;4820857;29;20046;-87
2023/05/29 04:54:12;;;;;;;0.20;0.20;;;10.30;99.90;;;;;;4840825;29;20365;-89
2023/05/29 04:56:39;;;;;;;0.20;0.20;;;10.30;99.90;;;;;;4822698;29;20057;-86
2023/05/29 04:59:09;;;;;;;0.10;0.10;;;10.30;99.90;;;;;;4823958;29;20054;-86
2023/05/29 05:01:35;;;;;;;0.10;0.10;;;10.30;99.90;;;;;;4815665;29;20134;-87
2023/05/29 05:04:00;;;;;;;0.15;0.15;;;10.40;99.90;;;;;;4825135;29;20053;-87
2023/05/29 05:06:26;;;;;;;0.20;0.20;;;10.40;99.90;;;;;;4843240;29;20048;-87
2023/05/29 05:08:53;;;;;;;0.20;0.20;;;10.40;99.90;;;;;;4846150;29;20046;-86
2023/05/29 05:11:20;;;;;;;0.20;0.20;;;10.50;99.90;;;;;;4841306;29;20125;-87
2023/05/29 05:13:46;;;;;;;0.20;0.20;;;10.40;99.90;;;;;;4829561;29;20050;-87
2023/05/29 05:16:11;;;;;;;0.10;0.10;;;10.50;99.90;;;;;;4838325;29;20466;-86
2023/05/29 05:18:37;;;;;;;0.15;0.15;;;10.50;99.90;;;;;;4822650;29;20103;-88
2023/05/29 05:21:03;;;;;;;0.10;0.10;;;10.60;99.90;;;;;;4818674;29;20134;-87
2023/05/29 05:23:30;;;;;;;0.20;0.20;;;10.60;99.90;;;;;;4837803;29;20054;-85
2023/05/29 05:25:55;;;;;;;0.20;0.20;;;10.60;99.90;;;;;;4822010;29;20518;-85
2023/05/29 05:28:21;;;;;;;0.20;0.20;;;10.70;99.90;;;;;;4813743;29;20121;-85
2023/05/29 05:30:47;;;;;;;0.20;0.20;;;10.70;99.90;;;;;;4843323;29;20121;-86
2023/05/29 05:33:13;;;;;;;0.20;0.20;;;10.70;99.90;;;;;;4848233;29;20068;-86
2023/05/29 05:35:38;;;;;;;0.20;0.20;;;10.80;99.90;;;;;;4838203;29;20535;-86
2023/05/29 05:38:04;;;;;;;0.20;0.20;;;10.80;99.90;;;;;;4838693;29;20054;-84
2023/05/29 05:40:30;;;;;;;0.17;0.17;;;10.90;99.90;;;;;;4839628;29;20034;-86
2023/05/29 05:42:55;;;;;;;0.20;0.20;;;11.00;99.90;;;;;;4840529;29;20639;-83
2023/05/29 05:45:21;;;;;;;0.20;0.20;;;11.10;99.90;;;;;;4838523;29;20042;-84
2023/05/29 05:47:47;;;;;;;0.20;0.20;;;11.10;99.90;;;;;;4839059;29;20570;-86
2023/05/29 05:50:13;;;;;;;0.20;0.20;;;11.20;99.90;;;;;;4819121;29;20054;-84
2023/05/29 05:52:39;;;;;;;0.10;0.10;;;11.30;99.90;;;;;;4808570;29;20144;-86
2023/05/29 05:55:04;;;;;;;0.13;0.13;;;11.30;99.90;;;;;;4817186;29;20064;-81
2023/05/29 05:57:32;;;;;;;0.15;0.15;;;11.40;99.90;;;;;;4820556;29;20576;-84
2023/05/29 06:00:00;;;;;;;0.13;0.13;;;11.40;99.90;;;;;;4835915;29;20046;-84
2023/05/29 06:02:25;;;;;;;0.10;0.10;;;11.40;99.90;;;;;;4836496;29;20085;-84
2023/05/29 06:04:51;;;;;;;0.20;0.20;;;11.50;99.90;;;;;;4822633;29;20085;-83
2023/05/29 06:07:17;;;;;;;0.20;0.20;;;11.50;99.90;;;;;;4835167;29;20134;-83
2023/05/29 06:09:43;;;;;;;0.10;0.10;;;11.50;99.90;;;;;;4838954;29;20110;-84
2023/05/29 06:12:09;;;;;;;0.20;0.20;;;11.50;99.90;;;;;;4816054;29;20053;-85
2023/05/29 06:14:35;;;;;;;0.20;0.20;;;11.50;99.90;;;;;;4826763;29;20046;-84
2023/05/29 06:17:01;;;;;;;0.15;0.15;;;11.60;99.90;;;;;;4834516;29;20038;-87
2023/05/29 06:19:27;;;;;;;0.20;0.20;;;11.50;99.90;;;;;;4823939;29;20681;-83
2023/05/29 06:21:53;;;;;;;0.20;0.20;;;11.60;99.90;;;;;;4840229;29;20050;-86
2023/05/29 06:24:18;;;;;;;0.20;0.20;;;11.60;99.90;;;;;;4838312;29;20122;-85
2023/05/29 06:26:44;;;;;;;0.20;0.20;;;11.70;99.90;;;;;;4836396;29;20912;-86
2023/05/29 06:29:10;;;;;;;0.10;0.10;;;11.70;99.90;;;;;;4836083;29;20098;-87
2023/05/29 06:31:35;;;;;;;0.20;0.20;;;11.70;99.90;;;;;;4823732;29;20136;-83
2023/05/29 06:34:01;;;;;;;0.10;0.10;;;11.70;99.90;;;;;;4820322;29;20062;-75
2023/05/29 06:36:27;;;;;;;0.17;0.17;;;11.80;99.90;;;;;;4827548;29;20042;-77
2023/05/29 06:38:52;;;;;;;0.10;0.10;;;11.90;99.90;;;;;;4835150;29;20057;-78
2023/05/29 06:41:18;;;;;;;0.20;0.20;;;11.80;99.90;;;;;;4837092;29;20186;-78
2023/05/29 06:43:44;;;;;;;0.10;0.10;;;11.90;99.90;;;;;;4824430;29;20146;-78
2023/05/29 06:46:11;;;;;;;0.15;0.15;;;11.90;99.90;;;;;;4841260;29;20435;-78
2023/05/29 06:48:36;;;;;;;0.20;0.20;;;11.90;99.80;;;;;;4823794;29;20413;-77
2023/05/29 06:51:08;;;;;;;0.20;0.20;;;11.90;99.80;;;;;;4840472;29;20049;-78
2023/05/29 06:53:37;;;;;;;;;;;12.00;99.80;;;;;;4839815;29;20510;-78
2023/05/29 06:56:03;;;;;;;0.10;0.10;;;12.00;99.90;;;;;;4840752;29;19924;-77
2023/05/29 06:58:30;;;;;;;0.17;0.17;;;12.00;99.90;;;;;;4841669;29;20050;-78
2023/05/29 07:00:56;;;;;;;0.10;0.10;;;12.00;99.60;;;;;;4824238;29;20053;-78
2023/05/29 07:03:21;;;;;;;0.20;0.20;;;12.10;99.50;;;;;;4827382;29;20046;-78
2023/05/29 07:05:47;;;;;;;0.10;0.10;;;12.10;99.50;;;;;;4848828;29;20076;-78
2023/05/29 07:08:13;;;;;;;0.20;0.20;;;12.20;99.60;;;;;;4824943;29;20084;-77
2023/05/29 07:10:39;;;;;;;0.20;0.20;;;12.20;99.60;;;;;;4839783;29;20085;-76
2023/05/29 07:13:06;;;;;;;0.20;0.20;;;12.20;99.70;;;;;;4840950;29;20525;-77
2023/05/29 07:15:32;;;;;;;0.20;0.20;;;12.20;99.80;;;;;;4838091;29;20133;-77
2023/05/29 07:17:58;;;;;;;0.20;0.20;;;12.30;99.90;;;;;;4831925;29;20121;-78
2023/05/29 07:20:23;;;;;;;0.10;0.10;;;12.30;99.80;;;;;;4848229;29;20058;-77
2023/05/29 07:22:49;;;;;;;0.20;0.20;;;12.40;99.70;;;;;;4838060;29;20138;-77
2023/05/29 07:25:15;;;;;;;0.13;0.13;;;12.40;99.50;;;;;;4837001;29;20046;-77
2023/05/29 07:27:40;;;;;;;0.15;0.15;;;12.50;99.60;;;;;;4820551;29;20041;-77
2023/05/29 07:30:07;;;;;;;0.20;0.20;;;12.50;99.60;;;;;;4821911;29;20061;-77
2023/05/29 07:32:33;;;;;;;0.10;0.10;;;12.60;99.60;;;;;;4821565;29;20096;-77
2023/05/29 07:34:59;;;;;;;0.20;0.20;;;12.60;99.10;;;;;;4823494;29;20453;-77
2023/05/29 07:37:24;;;;;;;0.20;0.20;;;12.60;99.00;;;;;;4823752;29;20058;-77
2023/05/29 07:39:50;;;;;;;0.20;0.20;;;12.70;99.10;;;;;;4824083;29;20065;-77
2023/05/29 07:42:16;;;;;;;0.20;0.20;;;12.70;98.90;;;;;;4840155;29;20054;-76
2023/05/29 07:44:42;;;;;;;0.20;0.20;;;12.70;99.00;;;;;;4821484;29;20130;-76
2023/05/29 07:47:09;;;;;;;0.10;0.10;;;12.80;98.90;;;;;;4838348;29;20409;-76
2023/05/29 07:49:35;;;;;;;0.15;0.15;;;12.80;98.90;;;;;;4825007;29;20555;-78
2023/05/29 07:52:02;;;;;;;0.15;0.15;;;12.80;98.90;;;;;;4819707;29;20133;-77
2023/05/29 07:54:28;;;;;;;0.20;0.20;;;12.90;98.90;;;;;;4838373;29;20050;-78
2023/05/29 07:56:54;;;;;;;0.20;0.20;;;12.90;98.90;;;;;;4837006;29;20107;-78
2023/05/29 07:59:21;;;;;;;0.20;0.20;;;12.90;98.90;;;;;;4820117;29;20064;-77
2023/05/29 08:01:47;;;;;;;0.20;0.20;;;13.00;99.00;;;;;;4824982;29;20068;-77
2023/05/29 08:04:12;;;;;;;0.10;0.10;;;13.00;99.00;;;;;;4824893;29;20127;-77
2023/05/29 08:06:43;;;;;;;0.20;0.20;;;13.00;98.90;;;;;;4816123;29;20057;-78
2023/05/29 08:09:10;;;;;;;0.20;0.20;;;13.10;99.00;;;;;;4833875;29;20068;-77
2023/05/29 08:11:36;;;;;;;0.20;0.20;;;13.10;98.70;;;;;;4834479;29;20038;-78
2023/05/29 08:14:02;;;;;;;0.20;0.20;;;13.20;98.50;;;;;;4836946;29;20257;-79
2023/05/29 08:16:28;;;;;;;0.20;0.20;;;13.20;98.40;;;;;;4821861;29;20046;-75
2023/05/29 08:18:55;;;;;;;0.20;0.20;;;13.20;98.40;;;;;;4807226;29;20091;-75
2023/05/29 08:21:20;;;;;;;0.13;0.13;;;13.20;98.20;;;;;;4835176;29;20050;-74
2023/05/29 08:23:46;;;;;;;0.20;0.20;;;13.20;98.20;;;;;;4836419;29;20091;-76
2023/05/29 08:26:13;;;;;;;0.20;0.20;;;13.20;98.30;;;;;;4815984;29;20042;-76
2023/05/29 08:28:39;;;;;;;0.20;0.20;;;13.30;98.40;;;;;;4821175;29;20054;-76
2023/05/29 08:31:04;;;;;;;0.10;0.10;;;13.30;98.30;;;;;;4837551;29;20214;-77
2023/05/29 08:33:30;;;;;;;0.20;0.20;;;13.30;98.40;;;;;;4815600;29;20071;-77
2023/05/29 08:36:00;;;;;;;0.20;0.20;;;13.40;98.90;;;;;;4832127;29;20038;-76
2023/05/29 08:38:26;;;;;;;0.20;0.20;;;13.40;98.50;;;;;;4820215;29;20114;-77
2023/05/29 08:40:52;;;;;;;0.20;0.20;;;13.40;98.50;;;;;;4819080;29;20054;-78
2023/05/29 08:43:22;;;;;;;0.10;0.10;;;13.50;98.40;;;;;;4831620;29;20044;-79
2023/05/29 08:45:53;;;;;;;0.20;0.20;;;13.50;98.30;;;;;;4824720;29;20070;-78
2023/05/29 08:48:24;;;;;;;0.10;0.10;;;13.50;98.30;;;;;;4815660;29;20057;-77
2023/05/29 08:50:53;;;;;;;0.13;0.13;;;13.50;98.40;;;;;;4830757;29;20053;-78
2023/05/29 08:53:19;;;;;;;0.20;0.20;;;13.60;98.30;;;;;;4831371;29;20056;-78
2023/05/29 08:55:46;;;;;;;0.17;0.17;;;13.60;98.10;;;;;;4813538;29;20049;-77
2023/05/29 08:58:16;;;;;;;0.20;0.20;;;13.60;98.10;;;;;;4815137;29;20511;-77
2023/05/29 09:00:42;;;;;;;0.20;0.20;;;13.60;97.90;;;;;;4832967;29;20045;-78
2023/05/29 09:03:07;;;;;;;0.20;0.20;;;13.70;97.80;;;;;;4821480;29;20380;-79
2023/05/29 09:05:33;;;;;;;0.20;0.20;;;13.70;97.70;;;;;;4817508;29;20053;-77
2023/05/29 09:07:59;;;;;;;0.20;0.20;;;13.70;97.70;;;;;;4821739;29;20387;-78
2023/05/29 09:10:26;;;;;;;0.20;0.20;;;13.70;97.60;;;;;;4835508;29;20042;-78
2023/05/29 09:12:51;;;;;;;0.20;0.20;;;13.70;97.50;;;;;;4805138;29;20054;-78
2023/05/29 09:15:21;;;;;;;0.17;0.17;;;13.70;97.60;;;;;;4836537;29;20053;-78
2023/05/29 09:17:55;;;;;;;0.10;0.10;;;13.80;97.50;;;;;;4836977;29;20058;-78
2023/05/29 09:20:25;;;;;;;0.20;0.20;;;13.80;97.40;;;;;;4821682;29;20092;-78
2023/05/29 09:23:02;;;;;;;0.20;0.20;;;13.90;97.40;;;;;;4820275;29;20129;-78
2023/05/29 09:25:32;;;;;;;0.20;0.20;;;13.90;97.50;;;;;;4838776;29;20110;-78
2023/05/29 09:28:04;;;;;;;0.20;0.20;;;14.00;97.70;;;;;;4820963;29;20050;-78
2023/05/29 09:30:34;;;;;;;0.20;0.20;;;14.10;97.70;;;;;;4837581;29;20074;-77
2023/05/29 09:33:01;;;;;;;0.15;0.15;;;14.10;97.70;;;;;;4837536;29;20045;-77
2023/05/29 09:35:34;;;;;;;0.10;0.10;;;14.20;97.60;;;;;;4820739;29;20045;-78
2023/05/29 09:38:00;;;;;;;0.20;0.20;;;14.30;97.50;;;;;;4838421;29;20053;-78
2023/05/29 09:40:29;;;;;;;0.20;0.20;;;14.30;97.50;;;;;;4833853;29;20046;-78
2023/05/29 09:42:54;;;;;;;0.20;0.20;;;14.40;97.30;;;;;;4817728;29;20053;-79
2023/05/29 09:45:21;;;;;;;0.20;0.20;;;14.40;97.40;;;;;;4822100;29;20054;-78
2023/05/29 09:47:48;;;;;;;0.20;0.20;;;14.40;97.10;;;;;;4831414;29;20399;-77
2023/05/29 09:50:22;;;;;;;0.20;0.20;;;14.40;96.90;;;;;;4835558;29;20053;-80
2023/05/29 09:52:53;;;;;;;0.20;0.20;;;14.40;97.10;;;;;;4813978;29;20194;-78
2023/05/29 09:55:23;;;;;;;0.20;0.20;;;14.50;97.20;;;;;;4822329;29;20475;-78
2023/05/29 09:57:49;;;;;;;0.20;0.20;;;14.50;96.90;;;;;;4821241;29;20320;-77
2023/05/29 10:00:17;;;;;;;0.15;0.15;;;14.50;96.80;;;;;;4838971;29;20118;-77
2023/05/29 10:02:42;;;;;;;0.20;0.20;;;14.50;96.90;;;;;;4837529;29;20121;-78
2023/05/29 10:05:09;;;;;;;0.20;0.20;;;14.60;96.70;;;;;;4837831;29;20506;-78
2023/05/29 10:07:36;;;;;;;0.10;0.10;;;14.60;96.80;;;;;;4838756;29;20046;-77
2023/05/29 10:10:07;;;;;;;0.10;0.10;;;14.60;96.70;;;;;;4817945;29;20055;-76
2023/05/29 10:12:38;;;;;;;0.20;0.20;;;14.70;96.30;;;;;;4835135;29;20050;-78
2023/05/29 10:15:11;;;;;;;0.20;0.20;;;14.70;96.60;;;;;;4826319;29;20081;-78
2023/05/29 10:17:39;;;;;;;0.20;0.20;;;14.80;96.50;;;;;;4841471;29;20092;-79
2023/05/29 10:20:07;;;;;;;0.20;0.20;;;14.80;96.20;;;;;;4828715;29;20134;-78
2023/05/29 10:22:35;;;;;;;0.20;0.20;;;14.80;96.20;;;;;;4835946;29;20147;-77
2023/05/29 10:25:02;;;;;;;0.20;0.20;;;14.80;96.30;;;;;;4824064;29;20046;-77
2023/05/29 10:27:28;;;;;;;0.15;0.15;;;14.80;96.20;;;;;;4837493;29;20073;-79
2023/05/29 10:30:05;;;;;;;0.20;0.20;;;14.80;96.20;;;;;;4827549;29;20078;-78
2023/05/29 10:33:10;;;;;;;0.20;0.20;;;14.80;96.10;;;;;;4832483;29;20108;-77
2023/05/29 10:35:45;;;;;;;0.20;0.20;;;14.80;96.00;;;;;;4821926;29;20054;-77
2023/05/29 10:38:16;;;;;;;0.20;0.20;;;14.80;96.10;;;;;;4840625;29;20601;-77
2023/05/29 10:40:43;;;;;;;0.20;0.20;;;14.80;96.30;;;;;;4824680;29;20037;-78
2023/05/29 10:43:11;;;;;;;0.20;0.20;;;14.90;96.30;;;;;;4859726;29;20102;-77
2023/05/29 10:45:39;;;;;;;0.10;0.10;;;14.90;96.20;;;;;;4836462;29;20113;-77
2023/05/29 10:48:08;;;;;;;0.10;0.10;;;14.90;96.10;;;;;;4836449;29;20125;-77
2023/05/29 10:50:45;;;;;;;0.13;0.13;;;14.90;96.10;;;;;;4842578;29;20383;-78
2023/05/29 10:53:16;;;;;;;0.20;0.20;;;15.00;96.40;;;;;;4824658;29;20046;-78
2023/05/29 10:55:44;;;;;;;0.20;0.20;;;15.10;96.40;;;;;;4822002;29;20411;-77
2023/05/29 10:58:20;;;;;;;0.20;0.20;;;15.10;95.70;;;;;;4822905;29;20403;-78
2023/05/29 11:00:48;;;;;;;0.10;0.10;;;15.10;95.60;;;;;;4841165;29;20744;-77
2023/05/29 11:03:21;;;;;;;0.10;0.10;;;15.20;95.70;;;;;;4828645;29;20054;-77
2023/05/29 11:06:20;;;;;;;0.20;0.20;;;15.20;95.90;;;;;;4823322;29;20129;-79
2023/05/29 11:08:47;;;;;;;0.20;0.20;;;15.30;95.90;;;;;;4839797;29;20049;-77
2023/05/29 11:11:36;;;;;;;0.20;0.20;;;15.30;95.60;;;;;;4832565;29;20050;-77
2023/05/29 11:14:06;;;;;;;0.17;0.17;;;15.30;95.40;;;;;;4820964;29;20060;-78
2023/05/29 11:16:32;;;;;;;0.20;0.20;;;15.30;95.50;;;;;;4828162;29;20413;-76
2023/05/29 11:19:03;;;;;;;0.20;0.20;;;15.30;95.40;;;;;;4840128;29;20042;-76
2023/05/29 11:21:46;;;;;;;0.20;0.20;;;15.30;95.40;;;;;;4840968;29;20065;-77
2023/05/29 11:24:25;;;;;;;0.20;0.20;;;15.40;95.40;;;;;;4840315;29;20529;-77
2023/05/29 11:26:53;;;;;;;0.20;0.20;;;15.40;95.40;;;;;;4841164;29;20058;-77
2023/05/29 11:29:29;;;;;;;0.20;0.20;;;15.40;95.40;;;;;;4823844;29;20418;-76
2023/05/29 11:32:02;;;;;;;0.20;0.20;;;15.40;95.40;;;;;;4839972;29;20058;-77
2023/05/29 11:34:30;;;;;;;0.20;0.20;;;15.40;95.50;;;;;;4841332;29;20050;-76
2023/05/29 11:37:00;;;;;;;0.20;0.20;;;15.50;95.60;;;;;;4830905;29;20111;-77
2023/05/29 11:39:26;;;;;;;0.10;0.10;;;15.60;95.60;;;;;;4837150;29;20041;-78
2023/05/29 11:41:52;;;;;;;0.20;0.20;;;15.70;95.30;;;;;;4810954;29;20046;-77
2023/05/29 11:44:19;;;;;;;0.13;0.13;;;15.80;95.20;;;;;;4838931;29;20046;-76
2023/05/29 11:46:44;;;;;;;0.10;0.10;;;15.80;95.10;;;;;;4824840;29;20408;-77
2023/05/29 11:49:10;;;;;;;0.20;0.20;;;15.90;95.10;;;;;;4838969;29;20042;-78
2023/05/29 11:51:36;;;;;;;0.20;0.20;;;15.90;95.00;;;;;;4837914;29;20046;-77
2023/05/29 11:54:02;;;;;;;0.20;0.20;;;15.90;94.90;;;;;;4837654;29;20069;-77
2023/05/29 11:56:29;;;;;;;0.20;0.20;;;15.90;94.80;;;;;;4818378;29;20093;-78
2023/05/29 11:58:59;;;;;;;0.20;0.20;;;15.90;94.60;;;;;;4823189;29;20462;-78
2023/05/29 12:01:27;;;;;;;0.10;0.10;;;15.90;94.20;;;;;;4839325;29;20049;-77
2023/05/29 12:03:53;;;;;;;0.13;0.13;;;15.90;94.20;;;;;;4839326;29;20509;-78
2023/05/29 12:06:38;;;;;;;0.20;0.20;;;15.90;94.30;;;;;;4845568;29;20053;-78
2023/05/29 12:09:04;;;;;;;0.20;0.20;;;16.00;94.60;;;;;;4827678;29;20224;-77
2023/05/29 12:11:31;;;;;;;0.20;0.20;;;16.00;94.40;;;;;;4812580;29;20046;-78
2023/05/29 12:13:59;;;;;;;0.20;0.20;;;16.10;94.80;;;;;;4821993;29;20491;-78
2023/05/29 12:16:26;;;;;;;0.15;0.15;;;16.20;94.70;;;;;;4806099;29;20213;-78
2023/05/29 12:18:52;;;;;;;0.20;0.20;;;16.30;94.60;;;;;;4804142;29;20038;-77
2023/05/29 12:21:21;;;;;;;0.10;0.10;;;16.30;94.20;;;;;;4851492;29;20049;-76
2023/05/29 12:23:46;;;;;;;0.10;0.10;;;16.40;94.40;;;;;;4822501;29;20122;-76
2023/05/29 12:26:12;;;;;;;0.20;0.20;;;16.40;94.20;;;;;;4839135;29;20053;-76
2023/05/29 12:28:45;;;;;;;0.20;0.20;;;16.50;94.10;;;;;;4823862;29;20077;-78
2023/05/29 12:31:11;;;;;;;0.20;0.20;;;16.50;94.00;;;;;;4839589;29;20046;-77
2023/05/29 12:33:42;;;;;;;0.10;0.10;;;16.60;93.70;;;;;;4840992;29;20488;-78
2023/05/29 12:36:10;;;;;;;;;;;16.60;93.80;;;;;;4838141;29;20060;-77
2023/05/29 12:38:50;;;;;;;0.20;0.20;;;16.70;93.60;;;;;;4821858;29;20006;-76
2023/05/29 12:41:23;;;;;;;0.20;0.20;;;16.70;93.50;;;;;;4838976;29;20050;-77
2023/05/29 12:43:48;;;;;;;0.20;0.20;;;16.80;93.70;;;;;;4817994;29;20066;-77
2023/05/29 12:46:14;;;;;;;0.20;0.20;;;16.90;93.60;;;;;;4804573;29;20406;-76
2023/05/29 12:48:40;;;;;;;0.10;0.10;;;17.00;93.40;;;;;;4828196;29;20144;-77
2023/05/29 12:51:07;;;;;;;0.10;0.10;;;17.10;93.50;;;;;;4858002;29;20171;-76
2023/05/29 12:53:33;;;;;;;0.10;0.10;;;17.10;93.50;;;;;;4828463;29;20098;-76